sensor_id;sensor_type;location;lat;lon;timestamp;temperature;humidity
71879;DHT22;59755;43.834;4.364;2023-07-08T00:00:41;25.20;58.30
71879;DHT22;59755;43.834;4.364;2023-07-08T00:03:07;25.30;58.40
71879;DHT22;59755;43.834;4.364;2023-07-08T00:05:33;25.30;58.30
71879;DHT22;59755;43.834;4.364;2023-07-08T00:07:59;25.30;58.80
71879;DHT22;59755;43.834;4.364;2023-07-08T00:10:25;25.30;58.90
71879;DHT22;59755;43.834;4.364;2023-07-08T00:12:52;25.30;59.20
71879;DHT22;59755;43.834;4.364;2023-07-08T00:15:19;25.40;59.20
71879;DHT22;59755;43.834;4.364;2023-07-08T00:17:45;25.40;59.30
71879;DHT22;59755;43.834;4.364;2023-07-08T00:20:16;25.40;59.40
71879;DHT22;59755;43.834;4.364;2023-07-08T00:22:43;25.40;59.30
71879;DHT22;59755;43.834;4.364;2023-07-08T00:25:21;25.40;59.30
71879;DHT22;59755;43.834;4.364;2023-07-08T00:27:47;25.40;59.10
71879;DHT22;59755;43.834;4.364;2023-07-08T00:30:26;25.30;59.10
71879;DHT22;59755;43.834;4.364;2023-07-08T00:32:52;25.30;59.20
71879;DHT22;59755;43.834;4.364;2023-07-08T00:37:52;25.10;59.70
71879;DHT22;59755;43.834;4.364;2023-07-08T00:40:30;25.00;59.80
71879;DHT22;59755;43.834;4.364;2023-07-08T00:42:58;25.00;59.80
71879;DHT22;59755;43.834;4.364;2023-07-08T00:47:56;25.00;59.30
71879;DHT22;59755;43.834;4.364;2023-07-08T00:50:25;24.90;59.40
71879;DHT22;59755;43.834;4.364;2023-07-08T00:52:50;24.90;59.40
71879;DHT22;59755;43.834;4.364;2023-07-08T00:55:36;24.90;59.00
71879;DHT22;59755;43.834;4.364;2023-07-08T00:58:02;24.90;58.30
71879;DHT22;59755;43.834;4.364;2023-07-08T01:00:27;24.80;58.50
71879;DHT22;59755;43.834;4.364;2023-07-08T01:02:54;24.80;58.40
71879;DHT22;59755;43.834;4.364;2023-07-08T01:05:22;24.70;58.50
71879;DHT22;59755;43.834;4.364;2023-07-08T01:07:50;24.50;58.90
71879;DHT22;59755;43.834;4.364;2023-07-08T01:10:18;24.50;58.80
71879;DHT22;59755;43.834;4.364;2023-07-08T01:12:46;24.50;58.60
71879;DHT22;59755;43.834;4.364;2023-07-08T01:15:12;24.40;58.70
71879;DHT22;59755;43.834;4.364;2023-07-08T01:17:40;24.40;58.60
71879;DHT22;59755;43.834;4.364;2023-07-08T01:20:07;24.30;58.50
71879;DHT22;59755;43.834;4.364;2023-07-08T01:22:38;24.20;58.70
71879;DHT22;59755;43.834;4.364;2023-07-08T01:25:12;24.00;58.80
71879;DHT22;59755;43.834;4.364;2023-07-08T01:27:40;24.00;58.80
71879;DHT22;59755;43.834;4.364;2023-07-08T01:30:07;23.90;58.40
71879;DHT22;59755;43.834;4.364;2023-07-08T01:32:34;24.00;58.40
71879;DHT22;59755;43.834;4.364;2023-07-08T01:35:01;23.90;58.20
71879;DHT22;59755;43.834;4.364;2023-07-08T01:37:31;24.00;58.00
71879;DHT22;59755;43.834;4.364;2023-07-08T01:40:13;24.00;57.50
71879;DHT22;59755;43.834;4.364;2023-07-08T01:42:38;24.00;57.40
71879;DHT22;59755;43.834;4.364;2023-07-08T01:45:09;24.00;57.40
71879;DHT22;59755;43.834;4.364;2023-07-08T01:47:35;24.10;57.30
71879;DHT22;59755;43.834;4.364;2023-07-08T01:50:00;24.00;57.60
71879;DHT22;59755;43.834;4.364;2023-07-08T01:52:26;23.90;57.80
71879;DHT22;59755;43.834;4.364;2023-07-08T01:54:55;23.90;57.80
71879;DHT22;59755;43.834;4.364;2023-07-08T01:57:21;23.90;57.70
71879;DHT22;59755;43.834;4.364;2023-07-08T01:59:46;23.90;57.70
71879;DHT22;59755;43.834;4.364;2023-07-08T02:02:12;23.80;57.80
71879;DHT22;59755;43.834;4.364;2023-07-08T02:04:38;23.80;57.80
71879;DHT22;59755;43.834;4.364;2023-07-08T02:07:04;23.80;57.80
71879;DHT22;59755;43.834;4.364;2023-07-08T02:09:30;23.90;57.80
71879;DHT22;59755;43.834;4.364;2023-07-08T02:11:55;23.80;58.00
71879;DHT22;59755;43.834;4.364;2023-07-08T02:14:21;23.70;58.20
71879;DHT22;59755;43.834;4.364;2023-07-08T02:16:47;23.60;58.50
71879;DHT22;59755;43.834;4.364;2023-07-08T02:19:13;23.60;58.50
71879;DHT22;59755;43.834;4.364;2023-07-08T02:21:39;23.60;58.70
71879;DHT22;59755;43.834;4.364;2023-07-08T02:24:05;23.50;58.80
71879;DHT22;59755;43.834;4.364;2023-07-08T02:26:31;23.60;58.60
71879;DHT22;59755;43.834;4.364;2023-07-08T02:28:59;23.60;58.50
71879;DHT22;59755;43.834;4.364;2023-07-08T02:31:25;23.50;58.90
71879;DHT22;59755;43.834;4.364;2023-07-08T02:33:51;23.50;59.10
71879;DHT22;59755;43.834;4.364;2023-07-08T02:36:17;23.40;59.30
71879;DHT22;59755;43.834;4.364;2023-07-08T02:38:43;23.40;59.20
71879;DHT22;59755;43.834;4.364;2023-07-08T02:41:08;23.30;59.40
71879;DHT22;59755;43.834;4.364;2023-07-08T02:43:34;23.30;59.30
71879;DHT22;59755;43.834;4.364;2023-07-08T02:45:59;23.30;59.50
71879;DHT22;59755;43.834;4.364;2023-07-08T02:48:25;23.30;59.60
71879;DHT22;59755;43.834;4.364;2023-07-08T02:50:50;23.20;59.70
71879;DHT22;59755;43.834;4.364;2023-07-08T02:53:16;23.20;60.00
71879;DHT22;59755;43.834;4.364;2023-07-08T02:55:42;23.20;59.80
71879;DHT22;59755;43.834;4.364;2023-07-08T02:58:10;23.20;60.00
71879;DHT22;59755;43.834;4.364;2023-07-08T03:00:36;23.10;60.10
71879;DHT22;59755;43.834;4.364;2023-07-08T03:03:03;23.20;59.90
71879;DHT22;59755;43.834;4.364;2023-07-08T03:05:29;23.20;59.70
71879;DHT22;59755;43.834;4.364;2023-07-08T03:07:56;23.20;59.50
71879;DHT22;59755;43.834;4.364;2023-07-08T03:10:21;23.20;59.20
71879;DHT22;59755;43.834;4.364;2023-07-08T03:12:47;23.30;59.10
71879;DHT22;59755;43.834;4.364;2023-07-08T03:15:12;23.30;58.70
71879;DHT22;59755;43.834;4.364;2023-07-08T03:17:38;23.30;58.70
71879;DHT22;59755;43.834;4.364;2023-07-08T03:20:04;23.20;58.90
71879;DHT22;59755;43.834;4.364;2023-07-08T03:22:31;23.30;59.00
71879;DHT22;59755;43.834;4.364;2023-07-08T03:24:56;23.30;58.70
71879;DHT22;59755;43.834;4.364;2023-07-08T03:27:22;23.30;58.70
71879;DHT22;59755;43.834;4.364;2023-07-08T03:29:48;23.30;58.60
71879;DHT22;59755;43.834;4.364;2023-07-08T03:32:14;23.30;58.60
71879;DHT22;59755;43.834;4.364;2023-07-08T03:34:39;23.30;58.70
71879;DHT22;59755;43.834;4.364;2023-07-08T03:37:05;23.30;58.50
71879;DHT22;59755;43.834;4.364;2023-07-08T03:39:30;23.30;58.50
71879;DHT22;59755;43.834;4.364;2023-07-08T03:41:57;23.20;58.70
71879;DHT22;59755;43.834;4.364;2023-07-08T03:44:22;23.20;58.80
71879;DHT22;59755;43.834;4.364;2023-07-08T03:46:48;23.20;59.10
71879;DHT22;59755;43.834;4.364;2023-07-08T03:49:20;23.10;59.10
71879;DHT22;59755;43.834;4.364;2023-07-08T03:51:49;23.20;59.00
71879;DHT22;59755;43.834;4.364;2023-07-08T03:54:15;23.20;59.00
71879;DHT22;59755;43.834;4.364;2023-07-08T03:56:41;23.20;58.90
71879;DHT22;59755;43.834;4.364;2023-07-08T03:59:06;23.20;58.60
71879;DHT22;59755;43.834;4.364;2023-07-08T04:01:32;23.30;58.30
71879;DHT22;59755;43.834;4.364;2023-07-08T04:03:58;23.20;58.50
71879;DHT22;59755;43.834;4.364;2023-07-08T04:06:24;23.20;58.50
71879;DHT22;59755;43.834;4.364;2023-07-08T04:08:50;23.20;59.00
71879;DHT22;59755;43.834;4.364;2023-07-08T04:11:19;23.20;59.00
71879;DHT22;59755;43.834;4.364;2023-07-08T04:13:45;23.10;59.30
71879;DHT22;59755;43.834;4.364;2023-07-08T04:16:19;23.10;59.40
71879;DHT22;59755;43.834;4.364;2023-07-08T04:18:45;23.10;59.70
71879;DHT22;59755;43.834;4.364;2023-07-08T04:21:11;23.00;59.90
71879;DHT22;59755;43.834;4.364;2023-07-08T04:23:36;23.00;60.00
71879;DHT22;59755;43.834;4.364;2023-07-08T04:26:02;23.00;59.90
71879;DHT22;59755;43.834;4.364;2023-07-08T04:28:27;23.10;59.50
71879;DHT22;59755;43.834;4.364;2023-07-08T04:30:53;23.10;59.50
71879;DHT22;59755;43.834;4.364;2023-07-08T04:33:18;23.10;59.50
71879;DHT22;59755;43.834;4.364;2023-07-08T04:35:44;23.10;59.70
71879;DHT22;59755;43.834;4.364;2023-07-08T04:38:28;23.10;59.50
71879;DHT22;59755;43.834;4.364;2023-07-08T04:40:54;23.10;59.80
71879;DHT22;59755;43.834;4.364;2023-07-08T04:43:20;23.00;60.00
71879;DHT22;59755;43.834;4.364;2023-07-08T04:45:47;23.00;60.10
71879;DHT22;59755;43.834;4.364;2023-07-08T04:48:15;23.00;60.20
71879;DHT22;59755;43.834;4.364;2023-07-08T04:50:42;23.10;60.20
71879;DHT22;59755;43.834;4.364;2023-07-08T04:53:08;23.10;60.00
71879;DHT22;59755;43.834;4.364;2023-07-08T04:55:34;23.20;59.90
71879;DHT22;59755;43.834;4.364;2023-07-08T04:58:00;23.20;60.10
71879;DHT22;59755;43.834;4.364;2023-07-08T05:00:27;23.20;60.10
71879;DHT22;59755;43.834;4.364;2023-07-08T05:02:53;23.20;60.20
71879;DHT22;59755;43.834;4.364;2023-07-08T05:05:19;23.30;60.10
71879;DHT22;59755;43.834;4.364;2023-07-08T05:07:45;23.40;60.00
71879;DHT22;59755;43.834;4.364;2023-07-08T05:10:10;23.40;59.80
71879;DHT22;59755;43.834;4.364;2023-07-08T05:12:36;23.40;59.70
71879;DHT22;59755;43.834;4.364;2023-07-08T05:15:02;23.50;59.80
71879;DHT22;59755;43.834;4.364;2023-07-08T05:17:28;23.50;59.60
71879;DHT22;59755;43.834;4.364;2023-07-08T05:19:53;23.50;59.80
71879;DHT22;59755;43.834;4.364;2023-07-08T05:22:19;23.50;59.80
71879;DHT22;59755;43.834;4.364;2023-07-08T05:24:50;23.50;60.00
71879;DHT22;59755;43.834;4.364;2023-07-08T05:27:21;23.50;60.00
71879;DHT22;59755;43.834;4.364;2023-07-08T05:29:47;23.60;60.20
71879;DHT22;59755;43.834;4.364;2023-07-08T05:32:12;23.60;60.40
71879;DHT22;59755;43.834;4.364;2023-07-08T05:34:38;23.50;60.40
71879;DHT22;59755;43.834;4.364;2023-07-08T05:37:04;23.60;60.10
71879;DHT22;59755;43.834;4.364;2023-07-08T05:39:30;23.70;59.80
71879;DHT22;59755;43.834;4.364;2023-07-08T05:41:55;23.80;59.80
71879;DHT22;59755;43.834;4.364;2023-07-08T05:44:21;23.80;59.60
71879;DHT22;59755;43.834;4.364;2023-07-08T05:46:47;23.90;59.90
71879;DHT22;59755;43.834;4.364;2023-07-08T05:49:13;23.90;59.80
71879;DHT22;59755;43.834;4.364;2023-07-08T05:51:39;23.90;59.80
71879;DHT22;59755;43.834;4.364;2023-07-08T05:54:04;24.00;60.50
71879;DHT22;59755;43.834;4.364;2023-07-08T05:56:30;23.90;60.60
71879;DHT22;59755;43.834;4.364;2023-07-08T05:58:56;24.00;60.80
71879;DHT22;59755;43.834;4.364;2023-07-08T06:01:21;24.10;60.50
71879;DHT22;59755;43.834;4.364;2023-07-08T06:03:47;24.10;60.40
71879;DHT22;59755;43.834;4.364;2023-07-08T06:06:13;24.10;60.40
71879;DHT22;59755;43.834;4.364;2023-07-08T06:08:38;24.20;60.30
71879;DHT22;59755;43.834;4.364;2023-07-08T06:11:04;24.20;60.70
71879;DHT22;59755;43.834;4.364;2023-07-08T06:13:30;24.30;60.10
71879;DHT22;59755;43.834;4.364;2023-07-08T06:15:55;24.20;60.00
71879;DHT22;59755;43.834;4.364;2023-07-08T06:18:21;24.20;60.40
71879;DHT22;59755;43.834;4.364;2023-07-08T06:20:56;24.20;61.40
71879;DHT22;59755;43.834;4.364;2023-07-08T06:23:22;24.20;61.20
71879;DHT22;59755;43.834;4.364;2023-07-08T06:25:48;24.30;60.50
71879;DHT22;59755;43.834;4.364;2023-07-08T06:28:13;24.30;60.50
71879;DHT22;59755;43.834;4.364;2023-07-08T06:30:39;24.20;60.90
71879;DHT22;59755;43.834;4.364;2023-07-08T06:33:05;24.30;60.10
71879;DHT22;59755;43.834;4.364;2023-07-08T06:35:30;24.40;60.00
71879;DHT22;59755;43.834;4.364;2023-07-08T06:37:56;24.50;59.90
71879;DHT22;59755;43.834;4.364;2023-07-08T06:40:21;24.60;59.50
71879;DHT22;59755;43.834;4.364;2023-07-08T06:42:47;24.60;59.00
71879;DHT22;59755;43.834;4.364;2023-07-08T06:45:12;24.70;58.90
71879;DHT22;59755;43.834;4.364;2023-07-08T06:47:38;24.70;59.20
71879;DHT22;59755;43.834;4.364;2023-07-08T06:50:04;24.80;59.00
71879;DHT22;59755;43.834;4.364;2023-07-08T06:52:30;24.90;58.90
71879;DHT22;59755;43.834;4.364;2023-07-08T06:55:05;25.00;58.00
71879;DHT22;59755;43.834;4.364;2023-07-08T06:57:31;25.10;58.10
71879;DHT22;59755;43.834;4.364;2023-07-08T06:59:56;25.10;58.00
71879;DHT22;59755;43.834;4.364;2023-07-08T07:02:22;25.20;57.60
71879;DHT22;59755;43.834;4.364;2023-07-08T07:04:47;25.20;57.30
71879;DHT22;59755;43.834;4.364;2023-07-08T07:07:13;25.30;57.10
71879;DHT22;59755;43.834;4.364;2023-07-08T07:09:38;25.30;57.20
71879;DHT22;59755;43.834;4.364;2023-07-08T07:12:05;25.40;57.40
71879;DHT22;59755;43.834;4.364;2023-07-08T07:14:31;25.50;56.90
71879;DHT22;59755;43.834;4.364;2023-07-08T07:16:56;25.70;56.40
71879;DHT22;59755;43.834;4.364;2023-07-08T07:19:22;25.80;55.60
71879;DHT22;59755;43.834;4.364;2023-07-08T07:21:47;25.90;55.90
71879;DHT22;59755;43.834;4.364;2023-07-08T07:24:13;26.00;56.00
71879;DHT22;59755;43.834;4.364;2023-07-08T07:26:39;26.00;55.30
71879;DHT22;59755;43.834;4.364;2023-07-08T07:29:04;26.10;55.30
71879;DHT22;59755;43.834;4.364;2023-07-08T07:31:30;26.20;55.20
71879;DHT22;59755;43.834;4.364;2023-07-08T07:33:58;26.40;54.20
71879;DHT22;59755;43.834;4.364;2023-07-08T07:36:24;26.50;53.90
71879;DHT22;59755;43.834;4.364;2023-07-08T07:38:49;26.60;52.70
71879;DHT22;59755;43.834;4.364;2023-07-08T07:41:15;26.70;50.90
71879;DHT22;59755;43.834;4.364;2023-07-08T07:43:40;26.90;50.70
71879;DHT22;59755;43.834;4.364;2023-07-08T07:46:06;27.00;49.40
71879;DHT22;59755;43.834;4.364;2023-07-08T07:48:33;27.10;48.50
71879;DHT22;59755;43.834;4.364;2023-07-08T07:50:59;27.20;48.10
71879;DHT22;59755;43.834;4.364;2023-07-08T07:53:24;27.20;48.20
71879;DHT22;59755;43.834;4.364;2023-07-08T07:55:57;27.20;48.60
71879;DHT22;59755;43.834;4.364;2023-07-08T07:58:23;27.30;47.80
71879;DHT22;59755;43.834;4.364;2023-07-08T08:00:48;27.40;47.20
71879;DHT22;59755;43.834;4.364;2023-07-08T08:03:14;27.50;46.90
71879;DHT22;59755;43.834;4.364;2023-07-08T08:05:42;27.50;46.50
71879;DHT22;59755;43.834;4.364;2023-07-08T08:08:07;27.60;46.80
71879;DHT22;59755;43.834;4.364;2023-07-08T08:10:34;27.70;46.60
71879;DHT22;59755;43.834;4.364;2023-07-08T08:13:00;27.80;45.50
71879;DHT22;59755;43.834;4.364;2023-07-08T08:15:26;27.70;45.90
71879;DHT22;59755;43.834;4.364;2023-07-08T08:17:51;27.80;46.20
71879;DHT22;59755;43.834;4.364;2023-07-08T08:20:18;27.90;46.30
71879;DHT22;59755;43.834;4.364;2023-07-08T08:22:44;27.90;45.70
71879;DHT22;59755;43.834;4.364;2023-07-08T08:25:10;27.90;45.20
71879;DHT22;59755;43.834;4.364;2023-07-08T08:27:35;28.00;44.80
71879;DHT22;59755;43.834;4.364;2023-07-08T08:30:01;28.10;44.60
71879;DHT22;59755;43.834;4.364;2023-07-08T08:32:27;28.10;45.20
71879;DHT22;59755;43.834;4.364;2023-07-08T08:34:52;28.30;45.00
71879;DHT22;59755;43.834;4.364;2023-07-08T08:37:18;28.20;44.40
71879;DHT22;59755;43.834;4.364;2023-07-08T08:39:44;28.20;44.00
71879;DHT22;59755;43.834;4.364;2023-07-08T08:44:54;28.50;43.10
71879;DHT22;59755;43.834;4.364;2023-07-08T08:52:36;28.60;43.30
71879;DHT22;59755;43.834;4.364;2023-07-08T08:55:07;28.80;42.60
71879;DHT22;59755;43.834;4.364;2023-07-08T08:57:38;29.00;42.70
71879;DHT22;59755;43.834;4.364;2023-07-08T09:00:07;29.10;42.70
71879;DHT22;59755;43.834;4.364;2023-07-08T09:02:42;29.00;41.90
71879;DHT22;59755;43.834;4.364;2023-07-08T09:05:14;28.90;42.50
71879;DHT22;59755;43.834;4.364;2023-07-08T09:07:44;29.10;42.20
71879;DHT22;59755;43.834;4.364;2023-07-08T09:12:56;29.30;41.30
71879;DHT22;59755;43.834;4.364;2023-07-08T09:15:22;29.40;41.30
71879;DHT22;59755;43.834;4.364;2023-07-08T09:17:50;29.60;41.80
71879;DHT22;59755;43.834;4.364;2023-07-08T09:20:26;29.70;41.10
71879;DHT22;59755;43.834;4.364;2023-07-08T09:27:54;29.80;40.90
71879;DHT22;59755;43.834;4.364;2023-07-08T09:30:21;30.10;40.30
71879;DHT22;59755;43.834;4.364;2023-07-08T09:32:47;30.30;39.60
71879;DHT22;59755;43.834;4.364;2023-07-08T09:35:21;30.30;39.40
71879;DHT22;59755;43.834;4.364;2023-07-08T09:37:48;30.30;39.30
71879;DHT22;59755;43.834;4.364;2023-07-08T09:40:18;30.20;39.90
71879;DHT22;59755;43.834;4.364;2023-07-08T09:42:46;30.10;39.70
71879;DHT22;59755;43.834;4.364;2023-07-08T09:45:14;30.30;39.60
71879;DHT22;59755;43.834;4.364;2023-07-08T09:47:40;30.40;39.60
71879;DHT22;59755;43.834;4.364;2023-07-08T09:50:16;30.50;39.00
71879;DHT22;59755;43.834;4.364;2023-07-08T09:52:43;30.50;39.30
71879;DHT22;59755;43.834;4.364;2023-07-08T09:55:11;30.50;39.30
71879;DHT22;59755;43.834;4.364;2023-07-08T09:57:37;30.50;39.20
71879;DHT22;59755;43.834;4.364;2023-07-08T10:00:11;30.70;39.10
71879;DHT22;59755;43.834;4.364;2023-07-08T10:02:45;30.80;39.30
71879;DHT22;59755;43.834;4.364;2023-07-08T10:07:43;31.20;38.50
71879;DHT22;59755;43.834;4.364;2023-07-08T10:10:12;31.30;38.10
71879;DHT22;59755;43.834;4.364;2023-07-08T10:12:40;31.40;38.10
71879;DHT22;59755;43.834;4.364;2023-07-08T10:15:13;31.30;37.80
71879;DHT22;59755;43.834;4.364;2023-07-08T10:17:40;31.40;38.30
71879;DHT22;59755;43.834;4.364;2023-07-08T10:20:12;31.60;37.20
71879;DHT22;59755;43.834;4.364;2023-07-08T10:22:41;31.80;37.10
71879;DHT22;59755;43.834;4.364;2023-07-08T10:27:39;32.00;36.80
71879;DHT22;59755;43.834;4.364;2023-07-08T10:32:37;32.20;36.10
71879;DHT22;59755;43.834;4.364;2023-07-08T10:35:16;32.20;36.80
71879;DHT22;59755;43.834;4.364;2023-07-08T10:40:30;32.70;36.00
71879;DHT22;59755;43.834;4.364;2023-07-08T10:43:20;32.70;35.80
